LGKF/EFL METAR and TAF weather

Enter ICAO airport designator
Station Type Date Time Source
LGKF METAR 2020/04/08 14:50 UTC NOAA

LGKF 081450Z 19006KT CAVOK 18/06 Q1020


Station Type Date Time Source
LGKF Decoded METAR 2020/04/08 14:50 UTC NOAA

Kefalhnia Airport , Greece (LGKF) 38-07N 020-30E 22M
Apr 08, 2020 - 10:50 AM EDT / 2020.04.08 1450 UTC
Wind: from the S (190 degrees) at 7 MPH (6 KT):0
Visibility: greater than 7 mile(s):0
Temperature: 64 F (18 C)
Dew Point: 42 F (6 C)
Relative Humidity: 45%
Pressure (altimeter): 30.12 in. Hg (1020 hPa)
ob: LGKF 081450Z 19006KT CAVOK 18/06 Q1020
cycle: 15

Station Type Date Time Source
LGKF TAF 2011/03/20 15:06 UTC NOAA

TAF LGKF 201400Z 2015/2103 05012KT 9999 FEW020 SCT080 PROB30
TEMPO 2015/2003 6000 RA SCT020 BKN060 PROB30
TEMPO 2015/2021 4000 TSRA SCT015 FEW018CB BKN025

Example: see airport list